Time;durP1;ratioP1;P1;durP2;ratioP2;P2;SDS_P1;SDS_P2;PMS_P1;PMS_P2;Temp;Humidity;BMP_temperature;BMP_pressure;BME280_temperature;BME280_humidity;BME280_pressure;Samples;Min_cycle;Max_cycle;Signal;HPM_P1;HPM_P2
2022/01/14 00:00:33;;;;;;;9.32;5.70;;;;;;;1.38;78.19;101716.69;4997576;28;20111;-72
2022/01/14 00:02:58;;;;;;;9.73;5.90;;;;;;;1.43;77.41;101709.88;4986594;28;20061;-72
2022/01/14 00:05:23;;;;;;;12.25;7.28;;;;;;;1.47;77.71;101714.25;4989167;28;20037;-73
2022/01/14 00:07:49;;;;;;;9.50;5.18;;;;;;;1.50;77.16;101706.53;5004556;28;20588;-72
2022/01/14 00:10:14;;;;;;;17.83;6.53;;;;;;;1.66;78.77;101709.41;5000545;28;20049;-59
2022/01/14 00:12:47;;;;;;;12.40;6.50;;;;;;;1.82;76.67;101711.44;5009395;28;20034;-57
2022/01/14 00:15:26;;;;;;;15.32;6.63;;;;;;;1.81;76.26;101714.88;5008807;28;20131;-59
2022/01/14 00:17:53;;;;;;;10.73;6.85;;;;;;;1.82;76.29;101711.44;5010287;28;20061;-73
2022/01/14 00:20:19;;;;;;;8.38;5.47;;;;;;;1.80;75.87;101699.28;5010263;28;20072;-73
2022/01/14 00:22:44;;;;;;;11.18;5.95;;;;;;;1.72;76.05;101701.72;5008642;28;20038;-73
2022/01/14 00:33:12;;;;;;;12.43;7.28;;;;;;;1.61;77.30;101700.66;5012718;28;20087;-73
2022/01/14 00:35:43;;;;;;;12.68;7.55;;;;;;;1.59;77.52;101690.22;5006077;28;20040;-73
2022/01/14 00:38:12;;;;;;;10.93;6.05;;;;;;;1.61;77.22;101696.31;5009723;28;20038;-73
2022/01/14 00:40:37;;;;;;;10.90;6.43;;;;;;;1.64;77.30;101690.31;5006582;28;20033;-72
2022/01/14 00:43:03;;;;;;;17.75;7.45;;;;;;;1.59;77.30;101681.56;5011316;28;20044;-72
2022/01/14 00:45:29;;;;;;;12.45;6.38;;;;;;;1.56;77.67;101687.56;5011343;28;20065;-72
2022/01/14 00:47:55;;;;;;;12.80;7.53;;;;;;;1.56;77.14;101684.09;5009105;28;20252;-72
2022/01/14 00:50:20;;;;;;;13.52;7.63;;;;;;;1.49;77.74;101694.38;5010154;28;20034;-72
2022/01/14 00:52:46;;;;;;;14.07;8.43;;;;;;;1.50;78.08;101692.63;5009622;28;20057;-73
2022/01/14 00:55:16;;;;;;;11.85;6.38;;;;;;;1.50;77.47;101682.25;5010595;28;20026;-72
2022/01/14 01:00:31;;;;;;;12.00;6.85;;;;;;;1.41;77.92;101680.38;5009919;28;20061;-73
2022/01/14 01:02:56;;;;;;;11.50;7.40;;;;;;;1.34;78.18;101675.91;5009897;28;20638;-72
2022/01/14 01:05:22;;;;;;;18.05;7.53;;;;;;;1.33;78.01;101668.06;5010022;28;20062;-72
2022/01/14 01:10:34;;;;;;;9.80;6.47;;;;;;;1.26;78.31;101667.97;5009864;28;20573;-72
2022/01/14 01:13:16;;;;;;;13.10;7.25;;;;;;;1.27;78.58;101664.50;5008231;28;20086;-72
2022/01/14 01:15:42;;;;;;;14.63;7.22;;;;;;;1.25;78.44;101660.13;5010001;28;20156;-72
2022/01/14 01:18:07;;;;;;;12.43;7.28;;;;;;;1.22;78.98;101660.94;5009869;28;20129;-73
2022/01/14 01:20:32;;;;;;;16.40;8.18;;;;;;;1.22;78.37;101663.53;5009278;28;20034;-73
2022/01/14 01:22:58;;;;;;;13.15;7.15;;;;;;;1.27;78.79;101663.63;5009537;28;20038;-73
2022/01/14 01:25:26;;;;;;;8.90;6.65;;;;;;;1.28;78.40;101671.47;4987847;28;20034;-73
2022/01/14 01:27:54;;;;;;;14.80;8.20;;;;;;;1.30;78.40;101666.28;4990122;28;20514;-73
2022/01/14 01:32:55;;;;;;;14.88;7.97;;;;;;;1.22;78.25;101670.47;4989607;28;20038;-73
2022/01/14 01:35:20;;;;;;;17.23;7.65;;;;;;;1.18;78.50;101666.03;4989542;28;20041;-73
2022/01/14 01:37:46;;;;;;;12.30;7.10;;;;;;;1.13;78.50;101662.47;4990009;28;20030;-73
2022/01/14 01:40:14;;;;;;;11.20;6.72;;;;;;;1.13;78.83;101662.47;4990222;28;20420;-74
2022/01/14 01:42:44;;;;;;;11.45;6.88;;;;;;;1.14;78.97;101664.25;4989485;28;20121;-74
2022/01/14 01:45:11;;;;;;;15.05;6.45;;;;;;;1.14;78.73;101662.53;4989007;28;20675;-73
2022/01/14 01:47:38;;;;;;;12.02;6.07;;;;;;;1.16;79.01;101659.97;4989669;28;20045;-74
2022/01/14 01:50:16;;;;;;;12.95;6.38;;;;;;;1.11;79.17;101653.78;4990017;28;20049;-74
2022/01/14 01:52:42;;;;;;;10.40;6.68;;;;;;;1.03;78.99;101653.63;4988498;28;20038;-74
2022/01/14 01:55:09;;;;;;;11.75;6.22;;;;;;;1.01;79.52;101647.53;4989989;28;20041;-73
2022/01/14 01:57:35;;;;;;;14.13;6.57;;;;;;;0.97;79.44;101645.75;4989783;28;20412;-73
2022/01/14 02:00:02;;;;;;;16.33;6.63;;;;;;;0.96;79.91;101643.97;4989736;28;20137;-73
2022/01/14 02:02:28;;;;;;;8.98;6.07;;;;;;;0.96;79.83;101637.06;4962600;28;20765;-72
2022/01/14 02:04:53;;;;;;;8.82;6.40;;;;;;;0.90;79.22;101638.66;4989614;28;20033;-72
2022/01/14 02:07:19;;;;;;;17.02;6.13;;;;;;;0.92;80.24;101630.06;4989101;28;20046;-72
2022/01/14 02:09:44;;;;;;;13.43;6.20;;;;;;;0.93;80.01;101631.81;4989613;28;20038;-72
2022/01/14 02:12:11;;;;;;;8.90;5.00;;;;;;;0.98;79.89;101626.69;5003204;28;20034;-73
2022/01/14 02:22:49;;;;;;;10.88;7.10;;;;;;;0.97;80.44;101612.84;4988613;28;20045;-73
2022/01/14 02:25:16;;;;;;;12.55;7.88;;;;;;;0.97;80.16;101618.03;4992722;28;20113;-72
2022/01/14 02:27:42;;;;;;;12.63;6.47;;;;;;;0.97;80.62;101611.97;5008885;28;20058;-72
2022/01/14 02:30:09;;;;;;;15.77;7.70;;;;;;;0.99;80.41;101610.28;5008907;28;20041;-72
2022/01/14 02:32:35;;;;;;;10.88;6.38;;;;;;;1.03;80.25;101610.38;5007946;28;20069;-73
2022/01/14 02:35:00;;;;;;;13.23;6.10;;;;;;;1.01;80.19;101609.47;5008708;28;20495;-73
2022/01/14 02:37:26;;;;;;;9.55;6.28;;;;;;;1.06;79.68;101614.75;5008906;28;20046;-74
2022/01/14 02:39:51;;;;;;;12.68;7.35;;;;;;;1.12;80.60;101624.38;5007190;28;20705;-73
2022/01/14 02:42:17;;;;;;;9.98;6.10;;;;;;;1.17;80.62;101614.94;5006692;28;20481;-73
2022/01/14 02:44:42;;;;;;;9.70;6.18;;;;;;;1.14;80.60;101615.78;4991850;28;20026;-73
2022/01/14 02:47:08;;;;;;;16.27;8.68;;;;;;;1.17;80.02;101608.03;5005390;28;20029;-73
2022/01/14 02:49:35;;;;;;;15.45;8.10;;;;;;;1.18;80.09;101608.91;5008679;28;20030;-74
2022/01/14 02:52:03;;;;;;;11.48;6.68;;;;;;;1.17;79.92;101604.56;5007767;28;20041;-73
2022/01/14 02:54:40;;;;;;;15.60;8.15;;;;;;;1.21;79.94;101615.03;5008785;28;20042;-74
2022/01/14 02:57:08;;;;;;;12.55;7.22;;;;;;;1.26;79.95;101604.75;5008547;28;20057;-74
2022/01/14 02:59:35;;;;;;;12.18;7.75;;;;;;;1.29;79.88;101603.06;5008969;28;20088;-74
2022/01/14 03:02:02;;;;;;;14.50;8.10;;;;;;;1.23;79.22;101608.16;5008297;28;20435;-75
2022/01/14 03:04:29;;;;;;;15.70;8.10;;;;;;;1.15;79.22;101601.06;5010893;28;20044;-75
2022/01/14 03:06:54;;;;;;;11.40;7.25;;;;;;;1.15;80.08;101599.31;5012468;28;20038;-75
2022/01/14 03:09:20;;;;;;;10.95;7.25;;;;;;;1.20;79.82;101597.69;5012540;28;20042;-75
2022/01/14 03:11:59;;;;;;;13.93;8.75;;;;;;;1.22;79.41;101596.00;5011742;28;20096;-75
2022/01/14 03:14:25;;;;;;;15.68;8.63;;;;;;;1.23;80.70;101592.56;5011381;28;20034;-75
2022/01/14 03:16:53;;;;;;;13.82;7.55;;;;;;;1.26;79.85;101586.56;5011429;28;20125;-77
2022/01/14 03:19:23;;;;;;;15.93;8.00;;;;;;;1.29;80.24;101597.00;5010369;28;20462;-75
2022/01/14 03:21:51;;;;;;;18.05;8.27;;;;;;;1.24;79.36;101593.44;5011289;28;20076;-75
2022/01/14 03:24:23;;;;;;;13.10;8.35;;;;;;;1.13;79.60;101587.16;5011467;28;20084;-74
2022/01/14 03:26:51;;;;;;;11.73;7.43;;;;;;;1.09;80.49;101593.16;5012349;28;20384;-73
2022/01/14 03:29:18;;;;;;;10.38;7.00;;;;;;;1.10;80.58;101589.72;5011923;28;20092;-73
2022/01/14 03:31:45;;;;;;;14.25;7.07;;;;;;;1.16;80.80;101593.31;5011315;28;20048;-74
2022/01/14 03:34:11;;;;;;;14.65;7.97;;;;;;;1.19;80.63;101595.94;5011731;28;20030;-74
2022/01/14 03:36:37;;;;;;;17.60;7.15;;;;;;;1.13;79.78;101590.63;5010653;28;20564;-74
2022/01/14 03:39:03;;;;;;;15.10;7.70;;;;;;;1.11;79.96;101594.03;5011655;28;20561;-74
2022/01/14 03:41:29;;;;;;;12.20;8.32;;;;;;;1.15;81.25;101582.88;5011318;28;20040;-74
2022/01/14 03:43:54;;;;;;;12.70;7.63;;;;;;;1.23;81.18;101578.69;5012031;28;20402;-74
2022/01/14 03:46:19;;;;;;;17.65;7.95;;;;;;;1.28;81.54;101575.34;5011738;28;20033;-74
2022/01/14 03:48:45;;;;;;;15.13;9.73;;;;;;;1.34;81.45;101576.28;5010212;28;20041;-74
2022/01/14 03:51:12;;;;;;;18.42;8.68;;;;;;;1.24;80.40;101575.25;5010938;28;20104;-74
2022/01/14 03:53:37;;;;;;;15.05;8.85;;;;;;;1.11;80.88;101575.88;5011990;28;20041;-74
2022/01/14 03:56:03;;;;;;;13.48;8.63;;;;;;;1.08;81.23;101576.69;5010416;28;20030;-74
2022/01/14 03:58:28;;;;;;;16.80;9.23;;;;;;;1.08;81.70;101571.50;5011593;28;20041;-74
2022/01/14 04:00:53;;;;;;;12.63;7.32;;;;;;;1.14;81.48;101571.63;4992575;28;20495;-74
2022/01/14 04:03:19;;;;;;;12.40;7.28;;;;;;;1.12;80.96;101573.31;5009757;28;20666;-73
2022/01/14 04:05:44;;;;;;;13.18;8.23;;;;;;;1.11;81.01;101562.88;5011458;28;20522;-74
2022/01/14 04:08:09;;;;;;;14.55;7.50;;;;;;;1.12;81.85;101582.81;5010610;28;20038;-74
2022/01/14 04:10:35;;;;;;;20.05;10.10;;;;;;;1.10;81.49;101568.94;5010033;28;20113;-72
2022/01/14 04:13:05;;;;;;;15.88;7.80;;;;;;;1.09;80.74;101562.00;5011285;28;20038;-73
2022/01/14 04:15:38;;;;;;;20.23;9.50;;;;;;;1.11;81.20;101555.09;5010736;28;20037;-72
2022/01/14 04:18:09;;;;;;;16.70;8.38;;;;;;;1.07;81.71;101555.03;5009300;28;20376;-72
2022/01/14 04:20:36;;;;;;;21.02;8.63;;;;;;;1.10;81.70;101551.63;5007726;28;20037;-72
2022/01/14 04:23:04;;;;;;;14.15;8.82;;;;;;;1.14;81.57;101548.25;5020490;28;20446;-72
2022/01/14 04:25:30;;;;;;;17.23;8.77;;;;;;;1.14;81.50;101550.84;5018418;28;20399;-72
2022/01/14 04:27:56;;;;;;;12.10;7.45;;;;;;;1.18;81.40;101554.34;5017441;28;20046;-72
2022/01/14 04:30:22;;;;;;;17.58;9.63;;;;;;;1.17;81.51;101550.88;5014205;28;20026;-72
2022/01/14 04:32:47;;;;;;;17.52;10.15;;;;;;;1.06;81.27;101548.09;5009401;28;20041;-72
2022/01/14 04:35:13;;;;;;;17.08;8.98;;;;;;;1.04;82.27;101536.81;5012002;28;20594;-73
2022/01/14 04:37:38;;;;;;;16.50;9.43;;;;;;;1.07;82.50;101531.66;5012962;28;20838;-72
2022/01/14 04:40:05;;;;;;;14.02;8.77;;;;;;;1.15;82.69;101534.38;5010752;28;20064;-72
2022/01/14 04:42:30;;;;;;;17.77;8.98;;;;;;;1.22;82.71;101532.78;5009870;28;20044;-73
2022/01/14 04:44:56;;;;;;;21.83;9.68;;;;;;;1.25;82.41;101533.69;5010569;28;20124;-73
2022/01/14 04:47:43;;;;;;;20.50;9.38;;;;;;;1.26;81.89;101532.00;5010613;28;20073;-74
2022/01/14 04:50:09;;;;;;;18.40;9.23;;;;;;;1.26;81.79;101532.00;5010812;28;20078;-72
2022/01/14 04:52:34;;;;;;;16.60;9.25;;;;;;;1.31;82.07;101529.47;5008256;28;20463;-74
2022/01/14 04:55:00;;;;;;;18.58;10.02;;;;;;;1.26;81.56;101535.47;5010335;28;20029;-72
2022/01/14 04:57:25;;;;;;;15.15;9.93;;;;;;;1.27;82.20;101536.34;5010557;28;20049;-71
2022/01/14 04:59:51;;;;;;;17.35;9.55;;;;;;;1.28;82.47;101525.09;5010249;28;20052;-72
2022/01/14 05:02:16;;;;;;;18.85;9.70;;;;;;;1.29;81.91;101526.84;5009462;28;20034;-72
2022/01/14 05:04:43;;;;;;;18.25;10.05;;;;;;;1.31;82.07;101516.50;5008442;28;20698;-72
2022/01/14 05:07:14;;;;;;;19.52;10.20;;;;;;;1.29;82.41;101519.91;5009169;28;20444;-73
2022/01/14 05:09:44;;;;;;;24.70;12.25;;;;;;;1.34;82.58;101512.22;5006544;28;20042;-73
2022/01/14 05:12:10;;;;;;;20.27;10.55;;;;;;;1.36;82.06;101517.44;5013043;28;20088;-73
2022/01/14 05:14:37;;;;;;;14.82;9.82;;;;;;;1.36;82.09;101513.09;5012179;28;20037;-73
2022/01/14 05:17:03;;;;;;;20.40;10.85;;;;;;;1.35;82.19;101513.06;5010282;28;20045;-73
2022/01/14 05:19:29;;;;;;;17.52;9.45;;;;;;;1.39;81.90;101509.69;5010168;28;20061;-73
2022/01/14 05:21:54;;;;;;;28.27;13.77;;;;;;;1.44;82.08;101508.91;5009100;28;20072;-75
2022/01/14 05:24:19;;;;;;;28.88;12.45;;;;;;;1.44;81.85;101514.09;5009415;28;20045;-74
2022/01/14 05:26:45;;;;;;;23.63;10.05;;;;;;;1.44;81.66;101515.81;5009583;28;20120;-74
2022/01/14 05:29:10;;;;;;;18.88;10.25;;;;;;;1.47;82.41;101519.34;5009809;28;20038;-74
2022/01/14 05:31:44;;;;;;;16.95;10.52;;;;;;;1.53;82.62;101520.28;5007748;28;20136;-74
2022/01/14 05:34:09;;;;;;;18.98;10.48;;;;;;;1.58;82.59;101532.53;5010036;28;20034;-74
2022/01/14 05:36:35;;;;;;;20.23;11.48;;;;;;;1.62;82.50;101526.50;5009979;28;20030;-74
2022/01/14 05:39:00;;;;;;;24.48;12.52;;;;;;;1.67;82.47;101523.97;5007106;28;20049;-74
2022/01/14 05:41:25;;;;;;;18.15;11.32;;;;;;;1.71;82.10;101533.56;5008909;28;20044;-74
2022/01/14 05:43:50;;;;;;;15.07;10.60;;;;;;;1.74;82.39;101531.00;4991700;28;20033;-74
2022/01/14 05:46:16;;;;;;;19.08;10.18;;;;;;;1.77;82.13;101533.66;5009570;28;20037;-74
2022/01/14 05:48:41;;;;;;;18.75;10.48;;;;;;;1.77;81.90;101515.44;5009190;28;20038;-75
2022/01/14 05:51:07;;;;;;;18.88;11.25;;;;;;;1.79;82.21;101531.97;5010818;28;20046;-74
2022/01/14 05:53:32;;;;;;;22.77;12.43;;;;;;;1.81;81.90;101526.78;5008713;28;20038;-74
2022/01/14 05:55:57;;;;;;;20.90;10.48;;;;;;;1.83;81.87;101522.50;5010063;28;20041;-74
2022/01/14 05:58:23;;;;;;;20.83;12.15;;;;;;;1.85;82.03;101526.00;5009162;28;20642;-75
2022/01/14 06:00:48;;;;;;;20.77;11.82;;;;;;;1.85;81.50;101515.59;5008555;28;20034;-73
2022/01/14 06:03:13;;;;;;;22.50;11.90;;;;;;;1.86;81.90;101517.31;5008940;28;20064;-73
2022/01/14 06:05:39;;;;;;;15.90;10.32;;;;;;;1.87;81.79;101516.47;5009286;28;20111;-72
2022/01/14 06:08:05;;;;;;;16.13;10.43;;;;;;;1.90;81.69;101513.94;5009241;28;20041;-73
2022/01/14 06:10:31;;;;;;;17.58;9.25;;;;;;;1.91;81.95;101519.13;5006197;28;20037;-73
2022/01/14 06:12:56;;;;;;;19.30;11.27;;;;;;;1.93;81.77;101511.38;5008523;28;20034;-72
2022/01/14 06:15:22;;;;;;;18.63;11.35;;;;;;;1.91;80.86;101518.25;5008821;28;20088;-73
2022/01/14 06:17:47;;;;;;;19.48;11.68;;;;;;;1.91;81.21;101511.31;5008920;28;20048;-73
2022/01/14 06:20:13;;;;;;;21.05;11.85;;;;;;;1.92;80.99;101513.09;5008438;28;20046;-73
2022/01/14 06:22:38;;;;;;;19.73;10.88;;;;;;;1.88;80.75;101513.91;5006295;28;20042;-73
2022/01/14 06:25:05;;;;;;;16.63;11.13;;;;;;;1.87;80.43;101519.97;5008948;28;20050;-74
2022/01/14 06:27:32;;;;;;;20.45;11.57;;;;;;;1.75;80.27;101524.97;5008017;28;20515;-74
2022/01/14 06:29:58;;;;;;;18.75;9.68;;;;;;;1.76;81.44;101524.13;5008075;28;20034;-74
2022/01/14 06:32:24;;;;;;;15.15;9.60;;;;;;;1.74;80.71;101517.16;5007420;28;20518;-73
2022/01/14 06:34:49;;;;;;;18.48;10.73;;;;;;;1.71;80.44;101513.66;5009248;28;20061;-73
2022/01/14 06:37:14;;;;;;;17.40;10.02;;;;;;;1.72;80.44;101506.72;5008750;28;20127;-72
2022/01/14 06:39:40;;;;;;;20.23;8.90;;;;;;;1.75;81.12;101506.78;5008818;28;20044;-72
2022/01/14 06:42:05;;;;;;;16.52;10.60;;;;;;;1.74;80.39;101507.63;5006295;28;20057;-74
2022/01/14 06:44:31;;;;;;;16.02;10.02;;;;;;;1.73;81.14;101511.09;4989594;28;20046;-74
2022/01/14 06:46:56;;;;;;;17.80;9.75;;;;;;;1.76;80.87;101508.50;4988642;28;20049;-73
2022/01/14 06:49:22;;;;;;;19.02;11.10;;;;;;;1.79;81.21;101503.34;5008684;28;20042;-73
2022/01/14 06:51:47;;;;;;;18.20;10.80;;;;;;;1.80;81.49;101502.53;5007572;28;20049;-73
2022/01/14 06:54:12;;;;;;;24.75;10.82;;;;;;;1.80;81.00;101502.53;5008904;28;20158;-72
2022/01/14 06:56:38;;;;;;;19.88;10.10;;;;;;;1.82;80.82;101490.41;5008556;28;20065;-73
2022/01/14 06:59:05;;;;;;;16.13;10.00;;;;;;;1.84;80.93;101486.09;5008329;28;20038;-73
2022/01/14 07:01:30;;;;;;;21.00;11.38;;;;;;;1.83;80.59;101496.50;5007432;28;20061;-73
2022/01/14 07:03:55;;;;;;;19.50;11.15;;;;;;;1.82;79.94;101490.41;5008660;28;20129;-74
2022/01/14 07:06:21;;;;;;;17.45;10.95;;;;;;;1.76;80.44;101492.06;5008076;28;20046;-74
2022/01/14 07:08:46;;;;;;;19.33;11.82;;;;;;;1.59;80.00;101492.66;4991593;28;20045;-75
2022/01/14 07:11:12;;;;;;;20.08;11.40;;;;;;;1.47;81.08;101490.75;5004398;28;20045;-73
2022/01/14 07:13:38;;;;;;;18.75;9.77;;;;;;;1.47;81.43;101490.75;5008600;28;20062;-73
2022/01/14 07:16:04;;;;;;;17.00;10.70;;;;;;;1.55;81.58;101495.19;5008149;28;20074;-72
2022/01/14 07:18:30;;;;;;;15.18;10.02;;;;;;;1.54;80.29;101496.06;5008276;28;20045;-75
2022/01/14 07:20:55;;;;;;;16.15;9.80;;;;;;;1.54;81.31;101498.66;5007765;28;20514;-73
2022/01/14 07:23:20;;;;;;;18.45;9.63;;;;;;;1.52;80.75;101501.22;5008176;28;20038;-74
2022/01/14 07:25:46;;;;;;;13.68;9.93;;;;;;;1.54;81.22;101498.66;5008330;28;20116;-74
2022/01/14 07:28:11;;;;;;;20.25;10.45;;;;;;;1.55;81.16;101503.00;5007167;28;20038;-74
2022/01/14 07:30:36;;;;;;;15.63;9.52;;;;;;;1.56;80.69;101500.44;5006234;28;20053;-74
2022/01/14 07:33:02;;;;;;;16.90;9.43;;;;;;;1.57;80.90;101502.16;5007644;28;20125;-74
2022/01/14 07:35:27;;;;;;;14.40;8.00;;;;;;;1.57;80.86;101504.75;5007954;28;20045;-73
2022/01/14 07:37:52;;;;;;;17.45;11.07;;;;;;;1.58;80.34;101510.84;5006833;28;20100;-73
2022/01/14 07:40:18;;;;;;;16.63;9.35;;;;;;;1.51;79.63;101522.88;5007944;28;20451;-73
2022/01/14 07:42:43;;;;;;;22.40;10.93;;;;;;;1.56;80.56;101522.94;5007545;28;20121;-73
2022/01/14 07:45:09;;;;;;;14.75;9.85;;;;;;;1.61;81.02;101523.91;5007975;28;20042;-73
2022/01/14 07:47:35;;;;;;;19.73;9.70;;;;;;;1.65;80.67;101517.88;5008634;28;20125;-73
2022/01/14 07:50:00;;;;;;;13.38;8.85;;;;;;;1.61;79.89;101519.56;5006195;28;20042;-73
2022/01/14 07:52:25;;;;;;;20.35;10.70;;;;;;;1.61;80.32;101526.50;5009623;28;20046;-72
2022/01/14 07:54:51;;;;;;;18.20;10.43;;;;;;;1.62;80.84;101517.81;5012056;28;20483;-72
2022/01/14 07:57:18;;;;;;;13.65;9.57;;;;;;;1.65;80.50;101517.88;5011430;28;20402;-74
2022/01/14 07:59:44;;;;;;;16.40;8.73;;;;;;;1.71;80.35;101518.84;5011834;28;20076;-73
2022/01/14 08:02:12;;;;;;;14.20;8.60;;;;;;;1.75;80.63;101517.19;5010738;28;20117;-74
2022/01/14 08:04:38;;;;;;;16.13;8.55;;;;;;;1.82;80.76;101515.53;4990063;28;20038;-73
2022/01/14 08:07:11;;;;;;;18.13;9.57;;;;;;;1.88;80.12;101507.81;5004914;28;20044;-74
2022/01/14 08:09:38;;;;;;;19.85;9.48;;;;;;;1.92;79.91;101520.03;5007033;28;20041;-74
2022/01/14 08:12:05;;;;;;;18.55;12.30;;;;;;;1.93;79.28;101519.16;5004845;28;20042;-72
2022/01/14 08:14:31;;;;;;;17.48;10.65;;;;;;;1.89;79.54;101527.75;5010932;28;20045;-73
2022/01/14 08:16:57;;;;;;;16.52;11.63;;;;;;;1.85;79.07;101521.66;5004217;28;20046;-73
2022/01/14 08:19:22;;;;;;;24.92;12.73;;;;;;;1.82;79.70;101523.31;4995087;28;20041;-73
2022/01/14 08:21:47;;;;;;;17.17;8.95;;;;;;;1.87;80.62;101522.56;5004724;28;20844;-72
2022/01/14 08:24:13;;;;;;;19.20;9.45;;;;;;;1.95;80.44;101522.66;4991719;28;20038;-72
2022/01/14 08:26:38;;;;;;;18.08;9.30;;;;;;;1.98;80.25;101514.03;4990898;28;20038;-72
2022/01/14 08:29:03;;;;;;;14.20;9.10;;;;;;;2.06;79.92;101504.59;4995639;28;20050;-72
2022/01/14 08:31:29;;;;;;;16.05;8.10;;;;;;;2.13;79.84;101503.81;5009834;28;20396;-72
2022/01/14 08:33:54;;;;;;;15.40;7.65;;;;;;;2.22;79.37;101516.09;5010951;28;20029;-73
2022/01/14 08:36:20;;;;;;;16.67;8.35;;;;;;;2.26;79.10;101515.25;5010640;28;20037;-74
2022/01/14 08:38:46;;;;;;;20.35;7.13;;;;;;;2.34;79.51;101516.25;5010780;28;20041;-67
2022/01/14 08:41:11;;;;;;;16.45;6.88;;;;;;;2.45;79.20;101516.38;5006912;28;20037;-68
2022/01/14 08:43:36;;;;;;;14.35;6.72;;;;;;;2.57;78.81;101511.31;5009825;28;20030;-68
2022/01/14 08:46:02;;;;;;;12.48;7.30;;;;;;;2.67;78.13;101520.09;5010301;28;20518;-69
2022/01/14 08:48:30;;;;;;;17.35;9.00;;;;;;;2.70;77.11;101517.50;5010363;28;20034;-69
2022/01/14 08:50:56;;;;;;;12.75;7.20;;;;;;;2.75;77.84;101514.09;5008068;28;20179;-69
2022/01/14 08:53:21;;;;;;;16.08;9.07;;;;;;;2.85;77.09;101522.00;5008497;28;20117;-67
2022/01/14 08:55:47;;;;;;;15.10;9.02;;;;;;;2.88;77.18;101517.72;5008409;28;20102;-69
2022/01/14 08:58:12;;;;;;;12.65;7.53;;;;;;;2.96;77.11;101513.44;5007151;28;20033;-68
2022/01/14 09:00:38;;;;;;;14.80;8.32;;;;;;;3.08;76.76;101525.72;5009843;28;20042;-69
2022/01/14 09:03:04;;;;;;;12.13;7.22;;;;;;;3.16;75.79;101523.19;4995345;28;20037;-69
2022/01/14 09:05:30;;;;;;;12.93;7.05;;;;;;;3.21;75.95;101514.53;5009837;28;20041;-69
2022/01/14 09:07:55;;;;;;;12.52;7.30;;;;;;;3.28;75.92;101525.91;5009799;28;20061;-69
2022/01/14 09:10:21;;;;;;;11.07;7.70;;;;;;;3.39;75.97;101526.00;5008976;28;20188;-69
2022/01/14 09:12:48;;;;;;;15.38;9.90;;;;;;;3.47;75.16;101523.44;4996518;28;20057;-68
2022/01/14 09:15:14;;;;;;;10.93;7.63;;;;;;;3.54;75.15;101518.28;5005264;28;20120;-68
2022/01/14 09:17:40;;;;;;;13.75;8.52;;;;;;;3.61;74.73;101519.22;4998131;28;20411;-68
2022/01/14 09:20:07;;;;;;;14.70;6.85;;;;;;;3.68;74.65;101512.31;5003513;28;20056;-68
2022/01/14 09:22:34;;;;;;;9.15;5.75;;;;;;;3.78;74.25;101514.13;4996815;28;20065;-69
2022/01/14 09:25:00;;;;;;;12.25;7.57;;;;;;;3.84;74.13;101511.56;4984384;28;20072;-69
2022/01/14 09:27:28;;;;;;;10.73;5.93;;;;;;;3.90;74.42;101514.19;4985106;28;20069;-68
2022/01/14 09:29:54;;;;;;;13.35;7.45;;;;;;;4.07;73.82;101519.50;4984470;28;20034;-69
2022/01/14 09:32:20;;;;;;;7.78;6.03;;;;;;;5.46;71.49;101516.34;4995013;28;20072;-73
2022/01/14 09:34:45;;;;;;;9.60;6.25;;;;;;;7.15;67.01;101512.28;4996859;28;20054;-73
2022/01/14 09:37:11;;;;;;;11.15;6.05;;;;;;;8.53;60.60;101501.25;4984360;28;20054;-73
2022/01/14 09:39:37;;;;;;;13.55;7.78;;;;;;;9.63;57.46;101497.81;4983121;28;20116;-74
2022/01/14 09:42:04;;;;;;;12.73;7.45;;;;;;;10.54;53.97;101502.22;4984023;28;20034;-72
2022/01/14 09:44:30;;;;;;;13.27;7.63;;;;;;;11.40;52.10;101497.56;4984420;28;20522;-73
2022/01/14 09:46:56;;;;;;;17.13;8.65;;;;;;;11.99;49.47;101487.22;4984903;28;20042;-73
2022/01/14 09:49:22;;;;;;;11.65;7.00;;;;;;;12.46;47.95;101489.41;4985564;28;20054;-73
2022/01/14 09:51:47;;;;;;;10.82;6.78;;;;;;;13.15;48.63;101502.28;4985096;28;20042;-73
2022/01/14 09:54:13;;;;;;;11.57;6.38;;;;;;;13.68;44.49;101502.28;4984522;28;20038;-74
2022/01/14 09:56:39;;;;;;;12.73;6.75;;;;;;;14.25;45.49;101505.56;4983955;28;20034;-73
2022/01/14 09:59:06;;;;;;;14.45;6.30;;;;;;;14.63;43.36;101496.19;4984227;28;20042;-74
2022/01/14 10:01:42;;;;;;;8.02;5.68;;;;;;;15.00;42.51;101495.59;4982137;28;20144;-74
2022/01/14 10:04:13;;;;;;;18.45;8.02;;;;;;;14.88;41.33;101485.47;4983895;28;20375;-74
2022/01/14 10:06:45;;;;;;;17.17;6.65;;;;;;;14.82;41.87;101485.75;4985680;28;20038;-74
2022/01/14 10:09:13;;;;;;;9.23;5.93;;;;;;;14.59;41.97;101478.66;4984803;28;20338;-73
2022/01/14 10:11:42;;;;;;;13.20;7.05;;;;;;;14.65;41.85;101477.56;4993404;28;20065;-73
2022/01/14 10:14:16;;;;;;;10.32;5.10;;;;;;;14.88;41.37;101480.16;5001863;28;20079;-71
2022/01/14 10:16:43;;;;;;;12.82;5.97;;;;;;;14.78;41.20;101479.66;5003891;28;20030;-72
2022/01/14 10:19:22;;;;;;;10.18;5.80;;;;;;;15.10;40.00;101474.84;5003525;28;20064;-73
2022/01/14 10:21:48;;;;;;;12.35;7.25;;;;;;;14.53;40.82;101476.22;5003298;28;20036;-74
2022/01/14 10:24:14;;;;;;;9.00;5.63;;;;;;;13.95;41.24;101477.47;5003255;28;20030;-73
2022/01/14 10:26:56;;;;;;;8.82;5.75;;;;;;;14.05;40.90;101477.13;5003692;28;20092;-73
2022/01/14 10:29:38;;;;;;;8.57;5.53;;;;;;;13.53;42.41;101477.19;5003492;28;20511;-73
2022/01/14 10:32:08;;;;;;;10.65;5.78;;;;;;;12.79;44.27;101474.28;5002751;28;20400;-73
2022/01/14 10:34:33;;;;;;;9.95;5.82;;;;;;;12.01;45.35;101466.91;5000200;28;20121;-73
2022/01/14 10:37:16;;;;;;;16.70;7.97;;;;;;;11.52;46.48;101470.84;5002744;28;20172;-72
2022/01/14 10:39:47;;;;;;;9.10;5.53;;;;;;;11.22;47.91;101471.63;5002634;28;20057;-72
2022/01/14 10:42:34;;;;;;;11.07;6.13;;;;;;;10.96;48.53;101476.63;5001678;28;20121;-73
2022/01/14 10:45:22;;;;;;;9.95;6.05;;;;;;;10.62;49.16;101460.69;5002835;28;20145;-74
2022/01/14 10:48:10;;;;;;;13.00;6.88;;;;;;;10.37;50.06;101459.53;4999660;28;20025;-73
2022/01/14 10:50:43;;;;;;;9.85;5.32;;;;;;;10.03;51.20;101449.63;5003557;28;20056;-73
2022/01/14 10:53:12;;;;;;;10.65;6.43;;;;;;;9.75;51.84;101452.81;5003816;28;20045;-72
2022/01/14 10:55:49;;;;;;;10.68;5.38;;;;;;;9.60;53.25;101448.72;4999817;28;20435;-72
2022/01/14 10:58:26;;;;;;;9.55;5.95;;;;;;;9.32;53.48;101445.69;4999113;28;20042;-73
2022/01/14 11:01:15;;;;;;;16.58;6.28;;;;;;;9.09;53.94;101448.72;4998635;28;20709;-73
2022/01/14 11:03:44;;;;;;;11.18;5.95;;;;;;;8.90;55.16;101447.28;5002589;28;20518;-73
2022/01/14 11:06:16;;;;;;;9.70;6.22;;;;;;;8.73;55.63;101450.16;5002901;28;20394;-75
2022/01/14 11:08:41;;;;;;;17.10;7.40;;;;;;;8.66;56.11;101461.66;5001733;28;20046;-72
2022/01/14 11:11:07;;;;;;;21.70;7.75;;;;;;;8.47;57.27;101451.41;4998085;28;20042;-72
2022/01/14 11:13:33;;;;;;;13.80;6.47;;;;;;;8.40;57.08;101459.41;4997040;28;20124;-73
2022/01/14 11:15:59;;;;;;;22.55;7.90;;;;;;;8.27;57.41;101464.78;5003103;28;20033;-73
2022/01/14 11:18:25;;;;;;;18.70;8.25;;;;;;;8.20;57.69;101467.50;5002699;28;20060;-73
2022/01/14 11:23:34;;;;;;;11.52;5.88;;;;;;;8.22;57.25;101460.44;4991791;28;20093;-73
2022/01/14 11:26:04;;;;;;;17.10;8.10;;;;;;;8.26;57.30;101463.03;5005442;28;20046;-73
2022/01/14 11:28:35;;;;;;;16.70;7.78;;;;;;;8.29;57.17;101452.47;5006739;28;20042;-73
2022/01/14 11:31:21;;;;;;;15.63;6.63;;;;;;;8.30;57.15;101459.47;5004965;28;20678;-73
2022/01/14 11:33:46;;;;;;;24.27;9.82;;;;;;;8.37;56.74;101457.66;4985759;28;20042;-73
2022/01/14 11:36:12;;;;;;;19.45;9.10;;;;;;;8.34;57.15;101455.03;4985896;28;20095;-73
2022/01/14 11:38:43;;;;;;;18.75;9.90;;;;;;;8.35;57.26;101451.53;5005093;28;20041;-73
2022/01/14 11:41:13;;;;;;;14.15;8.27;;;;;;;8.38;55.93;101454.97;5005640;28;20509;-74
2022/01/14 11:43:41;;;;;;;13.80;6.68;;;;;;;8.41;56.09;101440.97;4997209;28;20049;-73
2022/01/14 11:46:11;;;;;;;13.95;6.47;;;;;;;8.45;56.18;101431.28;5000610;28;20041;-72
2022/01/14 11:48:42;;;;;;;20.42;6.72;;;;;;;8.44;56.87;101429.53;5005187;28;20041;-73
2022/01/14 11:51:11;;;;;;;7.80;5.90;;;;;;;8.49;56.30;101417.19;5003186;28;20053;-75